createdAt,value
2022-08-05T00:00:08.909Z,952.7294312
2022-08-05T00:01:20.611Z,952.6889038
2022-08-05T00:02:11.420Z,952.7155762
2022-08-05T00:03:15.706Z,952.6864014
2022-08-05T00:04:11.668Z,952.6685791
2022-08-05T00:06:01.798Z,952.6595459
2022-08-05T00:06:29.133Z,952.6428223
2022-08-05T00:07:26.764Z,952.6365356
2022-08-05T00:08:19.779Z,952.640625
2022-08-05T00:09:19.593Z,952.6429443
2022-08-05T00:10:16.629Z,952.6451416
2022-08-05T00:11:20.526Z,952.621582
2022-08-05T00:12:17.962Z,952.6074219
2022-08-05T00:13:19.816Z,952.6071777
2022-08-05T00:14:19.310Z,952.6185913
2022-08-05T00:15:55.851Z,952.5864258
2022-08-05T00:16:36.089Z,952.6082764
2022-08-05T00:17:22.082Z,952.5620117
2022-08-05T00:18:22.912Z,952.5318604
2022-08-05T00:19:24.920Z,952.5357666
2022-08-05T00:20:28.765Z,952.5151367
2022-08-05T00:21:24.757Z,952.4957886
2022-08-05T00:22:25.441Z,952.5144043
2022-08-05T00:23:44.199Z,952.4832764
2022-08-05T00:24:30.729Z,952.5153198
2022-08-05T00:25:27.488Z,952.5339355
2022-08-05T00:26:29.022Z,952.5629883
2022-08-05T00:27:35.780Z,952.5343628
2022-08-05T00:28:30.306Z,952.534668
2022-08-05T00:29:37.610Z,952.5567017
2022-08-05T00:31:04.446Z,952.5167236
2022-08-05T00:32:10.642Z,952.5239258
2022-08-05T00:33:05.221Z,952.555542
2022-08-05T00:34:55.195Z,952.5122681
2022-08-05T00:35:07.714Z,952.5117188
2022-08-05T00:36:16.237Z,952.5089111
2022-08-05T00:37:13.821Z,952.5285645
2022-08-05T00:38:09.596Z,952.5552979
2022-08-05T00:39:13.956Z,952.5378418
2022-08-05T00:40:10.915Z,952.5460815
2022-08-05T00:41:11.990Z,952.552002
2022-08-05T00:42:12.333Z,952.5510864
2022-08-05T00:43:15.389Z,952.5350952
2022-08-05T00:44:13.658Z,952.5109253
2022-08-05T00:45:14.342Z,952.4929199
2022-08-05T00:46:15.590Z,952.5089111
2022-08-05T00:47:16.473Z,952.4951782
2022-08-05T00:48:17.066Z,952.4512329
2022-08-05T00:49:17.719Z,952.5374756
2022-08-05T00:50:20.795Z,952.541748
2022-08-05T00:51:50.279Z,952.5314331
2022-08-05T00:52:28.310Z,952.522522
2022-08-05T00:54:00.819Z,952.4978027
2022-08-05T00:54:21.705Z,952.4226074
2022-08-05T00:55:22.993Z,952.4411621
2022-08-05T00:56:24.588Z,952.4266968
2022-08-05T00:57:31.924Z,952.4020386
2022-08-05T00:58:27.660Z,952.3828735
2022-08-05T00:59:26.696Z,952.4202881
2022-08-05T01:00:27.585Z,952.4081421
2022-08-05T01:01:42.586Z,952.3842163
2022-08-05T01:02:29.092Z,952.3687744
2022-08-05T01:03:33.497Z,952.3473511
2022-08-05T01:04:31.073Z,952.3417358
2022-08-05T01:06:05.390Z,952.3520508
2022-08-05T01:07:05.230Z,952.300415
2022-08-05T01:08:40.576Z,952.3134155
2022-08-05T01:09:05.606Z,952.3311768
2022-08-05T01:10:09.025Z,952.3064575
2022-08-05T01:11:07.798Z,952.3050537
2022-08-05T01:12:18.035Z,952.2976074
2022-08-05T01:13:13.399Z,952.3110962
2022-08-05T01:14:10.228Z,952.2995605
2022-08-05T01:15:35.667Z,952.3082886
2022-08-05T01:16:12.629Z,952.3013916
2022-08-05T01:17:13.381Z,952.3284912
2022-08-05T01:18:14.228Z,952.364502
2022-08-05T01:19:14.926Z,952.3897705
2022-08-05T01:20:16.597Z,952.3692017
2022-08-05T01:21:22.742Z,952.3886719
2022-08-05T01:22:23.866Z,952.3786621
2022-08-05T01:23:22.766Z,952.4293823
2022-08-05T01:24:19.621Z,952.421936
2022-08-05T01:25:20.319Z,952.4050293
2022-08-05T01:26:21.595Z,952.4106445
2022-08-05T01:27:22.398Z,952.430542
2022-08-05T01:28:23.254Z,952.4317017
2022-08-05T01:29:24.021Z,952.4263916
2022-08-05T01:30:34.901Z,952.4103394
2022-08-05T01:31:25.412Z,952.4053345
2022-08-05T01:32:27.716Z,952.4342041
2022-08-05T01:33:27.009Z,952.4431152
2022-08-05T01:34:27.723Z,952.4464111
2022-08-05T01:35:50.780Z,952.4245605
2022-08-05T01:36:29.651Z,952.4364014
2022-08-05T01:37:31.298Z,952.3723145
2022-08-05T01:39:03.363Z,952.4056396
2022-08-05T01:40:03.698Z,952.3942871
2022-08-05T01:41:04.328Z,952.3279419
2022-08-05T01:42:05.052Z,952.2857666
2022-08-05T01:43:05.871Z,952.3104858
2022-08-05T01:44:06.685Z,952.3283081
2022-08-05T01:45:08.146Z,952.331543
2022-08-05T01:46:16.246Z,952.3343506
2022-08-05T01:47:09.590Z,952.3348389
2022-08-05T01:48:10.558Z,952.3046875
2022-08-05T01:49:23.246Z,952.2849731
2022-08-05T01:50:15.291Z,952.2828369
2022-08-05T01:51:13.230Z,952.305481
2022-08-05T01:52:17.794Z,952.2709961
2022-08-05T01:53:15.430Z,952.2895508
2022-08-05T01:54:18.072Z,952.263855
2022-08-05T01:55:16.972Z,952.2698364
2022-08-05T01:58:11.437Z,952.272583
2022-08-05T01:58:12.246Z,952.2853394
2022-08-05T01:58:40.555Z,952.284668
2022-08-05T01:59:20.523Z,952.3141479
2022-08-05T02:00:30.644Z,952.3312378
2022-08-05T02:01:25.471Z,952.3509521
2022-08-05T02:02:26.193Z,952.3070068
2022-08-05T02:03:31.785Z,952.3025513
2022-08-05T02:04:25.512Z,952.2875977
2022-08-05T02:05:25.909Z,952.3129883
2022-08-05T02:06:38.176Z,952.2647095
2022-08-05T02:07:30.402Z,952.2630615
2022-08-05T02:08:30.918Z,952.2909546
2022-08-05T02:09:29.559Z,952.2884521
2022-08-05T02:11:01.144Z,952.2545166
2022-08-05T02:12:02.626Z,952.2456055
2022-08-05T02:13:04.768Z,952.2352905
2022-08-05T02:14:04.148Z,952.1796265
2022-08-05T02:15:04.956Z,952.1964111
2022-08-05T02:16:05.679Z,952.2000732
2022-08-05T02:17:07.342Z,952.2070313
2022-08-05T02:18:27.759Z,952.2146606
2022-08-05T02:19:08.528Z,952.1634521
2022-08-05T02:20:09.320Z,952.1994629
2022-08-05T02:21:14.652Z,952.2293091
2022-08-05T02:22:25.685Z,952.2149048
2022-08-05T02:23:13.502Z,952.230957
2022-08-05T02:24:13.956Z,952.204834
2022-08-05T02:25:14.795Z,952.196228
2022-08-05T02:26:15.557Z,952.2098389
2022-08-05T02:27:16.991Z,952.2067261
2022-08-05T02:28:28.259Z,952.213623
2022-08-05T02:29:21.596Z,952.1966553
2022-08-05T02:30:19.268Z,952.1624756
2022-08-05T02:31:21.059Z,952.1494751
2022-08-05T02:32:24.175Z,952.1184082
2022-08-05T02:33:24.345Z,952.1741943
2022-08-05T02:34:23.216Z,952.1158447
2022-08-05T02:35:28.034Z,952.1534424
2022-08-05T02:36:24.794Z,952.1439819
2022-08-05T02:37:26.490Z,952.1054688
2022-08-05T02:38:27.182Z,952.1630249
2022-08-05T02:39:27.961Z,952.1696777
2022-08-05T02:40:28.783Z,952.1782227
2022-08-05T02:41:43.424Z,952.171936
2022-08-05T02:43:00.571Z,952.1923218
2022-08-05T02:44:06.299Z,952.1715698
2022-08-05T02:45:02.063Z,952.196106
2022-08-05T02:46:02.844Z,952.2173462
2022-08-05T02:47:04.646Z,952.1796265
2022-08-05T02:48:11.753Z,952.1850586
2022-08-05T02:49:06.072Z,952.1589966
2022-08-05T02:50:06.784Z,952.1439209
2022-08-05T02:51:07.598Z,952.1757813
2022-08-05T02:52:08.652Z,952.164917
2022-08-05T02:53:11.698Z,952.1706543
2022-08-05T02:54:09.706Z,952.1777344
2022-08-05T02:55:10.917Z,952.1807861
2022-08-05T02:56:15.972Z,952.1773682
2022-08-05T02:58:10.569Z,952.1878052
2022-08-05T02:58:14.161Z,952.1668701
2022-08-05T02:59:14.781Z,952.2045288
2022-08-05T03:00:15.468Z,952.1727905
2022-08-05T03:01:17.320Z,952.2251587
2022-08-05T03:02:17.986Z,952.1974487
2022-08-05T03:03:18.683Z,952.1917725
2022-08-05T03:04:19.360Z,952.163269
2022-08-05T03:05:21.856Z,952.2015381
2022-08-05T03:06:53.706Z,952.1859131
2022-08-05T03:07:40.315Z,952.1746216
2022-08-05T03:08:27.193Z,952.2129517
2022-08-05T03:09:27.162Z,952.1548462
2022-08-05T03:10:25.159Z,952.2064209
2022-08-05T03:11:55.184Z,952.1921997
2022-08-05T03:12:26.656Z,952.1210327
2022-08-05T03:13:27.751Z,952.1073608
2022-08-05T03:14:28.098Z,952.105957
2022-08-05T03:15:28.809Z,952.0709229
2022-08-05T03:17:02.124Z,952.0881348
2022-08-05T03:18:01.967Z,952.0750732
2022-08-05T03:19:04.274Z,952.0610962
2022-08-05T03:20:03.375Z,952.0606079
2022-08-05T03:21:04.024Z,952.0779419
2022-08-05T03:22:16.286Z,952.0457764
2022-08-05T03:23:05.622Z,952.0344238
2022-08-05T03:24:07.145Z,952.03302
2022-08-05T03:25:33.788Z,952.0158081
2022-08-05T03:26:31.436Z,951.9945068
2022-08-05T03:27:10.220Z,951.9989014
2022-08-05T03:28:10.984Z,952.0204468
2022-08-05T03:29:13.100Z,951.9996948
2022-08-05T03:30:13.793Z,951.9824829
2022-08-05T03:31:25.879Z,952.006897
2022-08-05T03:32:15.472Z,951.9940796
2022-08-05T03:33:16.083Z,951.9685059
2022-08-05T03:34:16.856Z,952.0039063
2022-08-05T03:35:17.544Z,952.0290527
2022-08-05T03:36:27.939Z,952.0101318
2022-08-05T03:37:20.947Z,952.03479
2022-08-05T03:38:32.644Z,952.0557251
2022-08-05T03:39:27.264Z,952.050415
2022-08-05T03:40:31.353Z,952.043457
2022-08-05T03:41:23.747Z,952.0178223
2022-08-05T03:42:27.171Z,952.0206299
2022-08-05T03:44:08.790Z,951.9975586
2022-08-05T03:44:25.952Z,952.0315552
2022-08-05T03:45:26.683Z,952.0198364
2022-08-05T03:46:29.642Z,952.069397
2022-08-05T03:47:35.186Z,952.0432129
2022-08-05T03:48:59.897Z,952.0370483
2022-08-05T03:50:00.652Z,952.0615845
2022-08-05T03:52:38.608Z,952.0377197
2022-08-05T03:52:48.404Z,952.0931396
2022-08-05T03:55:00.349Z,952.0706177
2022-08-05T03:55:50.114Z,952.0869751
2022-08-05T03:56:04.781Z,952.0998535
2022-08-05T03:56:17.997Z,952.0906982
2022-08-05T03:57:16.029Z,952.0995483
2022-08-05T03:58:08.181Z,952.117981
2022-08-05T03:59:08.932Z,952.0974121
2022-08-05T04:00:09.691Z,952.1086426
2022-08-05T04:01:11.269Z,952.1207886
2022-08-05T04:02:17.314Z,952.0690918
2022-08-05T04:03:26.758Z,952.102356
2022-08-05T04:04:13.307Z,952.0779419
2022-08-05T04:05:14.102Z,952.0518799
2022-08-05T04:06:15.637Z,952.0756226
2022-08-05T04:07:16.415Z,952.1192017
2022-08-05T04:08:30.396Z,952.0742798
2022-08-05T04:09:20.412Z,952.1501465
2022-08-05T04:10:19.408Z,952.1229858
2022-08-05T04:11:19.991Z,952.1657715
2022-08-05T04:12:24.409Z,952.1738892
2022-08-05T04:13:21.465Z,952.1743774
2022-08-05T04:14:30.147Z,952.1521606
2022-08-05T04:15:24.346Z,952.1702881
2022-08-05T04:16:24.362Z,952.1914063
2022-08-05T04:17:25.450Z,952.2017212
2022-08-05T04:18:25.826Z,952.1755981
2022-08-05T04:19:26.634Z,952.1585693
2022-08-05T04:20:27.449Z,952.1843262
2022-08-05T04:22:08.748Z,952.1954956
2022-08-05T04:22:59.281Z,952.1888428
2022-08-05T04:24:05.618Z,952.2026367
2022-08-05T04:25:00.805Z,952.2770996
2022-08-05T04:26:02.077Z,952.2927246
2022-08-05T04:27:02.822Z,952.2885742
2022-08-05T04:28:06.042Z,952.3081055
2022-08-05T04:29:07.180Z,952.2855225
2022-08-05T04:30:05.961Z,952.3009644
2022-08-05T04:31:10.432Z,952.3156128
2022-08-05T04:32:08.388Z,952.3352051
2022-08-05T04:33:09.022Z,952.3173218
2022-08-05T04:34:31.369Z,952.3586426
2022-08-05T04:35:17.768Z,952.3806152
2022-08-05T04:36:45.287Z,952.3461914
2022-08-05T04:37:12.929Z,952.376709
2022-08-05T04:38:15.482Z,952.3492432
2022-08-05T04:39:15.230Z,952.3543701
2022-08-05T04:40:19.416Z,952.368103
2022-08-05T04:41:16.770Z,952.3823242
2022-08-05T04:42:17.588Z,952.4029541
2022-08-05T04:43:18.280Z,952.4057617
2022-08-05T04:44:29.064Z,952.3789063
2022-08-05T04:45:22.889Z,952.4170532
2022-08-05T04:46:28.512Z,952.4523926
2022-08-05T04:47:21.714Z,952.460083
2022-08-05T04:48:27.719Z,952.4480591
2022-08-05T04:49:24.582Z,952.4620361
2022-08-05T04:50:37.270Z,952.4723511
2022-08-05T04:51:24.783Z,952.5026855
2022-08-05T04:52:27.601Z,952.4979858
2022-08-05T04:53:26.827Z,952.4835815
2022-08-05T04:54:27.524Z,952.4970093
2022-08-05T04:56:32.931Z,952.4882813
2022-08-05T04:56:59.974Z,952.4685669
2022-08-05T04:58:01.714Z,952.4553223
2022-08-05T04:59:21.680Z,952.416748
2022-08-05T05:00:03.076Z,952.4572144
2022-08-05T05:01:03.846Z,952.4871826
2022-08-05T05:02:07.773Z,952.4692383
2022-08-05T05:03:05.529Z,952.4882202
2022-08-05T05:04:06.189Z,952.4692383
2022-08-05T05:05:16.929Z,952.5314331
2022-08-05T05:06:39.126Z,952.5179443
2022-08-05T05:07:09.342Z,952.5193481
2022-08-05T05:08:14.378Z,952.5159912
2022-08-05T05:09:14.154Z,952.5133667
2022-08-05T05:10:12.351Z,952.5197144
2022-08-05T05:11:15.204Z,952.5262451
2022-08-05T05:12:13.866Z,952.5172119
2022-08-05T05:13:14.610Z,952.5261841
2022-08-05T05:14:15.258Z,952.5592041
2022-08-05T05:15:17.330Z,952.5440674
2022-08-05T05:16:16.620Z,952.5426025
2022-08-05T05:17:23.372Z,952.5379639
2022-08-05T05:18:28.221Z,952.508606
2022-08-05T05:19:26.507Z,952.538269
2022-08-05T05:20:21.131Z,952.4874878
2022-08-05T05:21:21.955Z,952.5059204
2022-08-05T05:22:26.103Z,952.5577393
2022-08-05T05:23:23.631Z,952.5758057
2022-08-05T05:24:56.415Z,952.5753174
2022-08-05T05:25:40.365Z,952.5826416
2022-08-05T05:26:28.165Z,952.6166382
2022-08-05T05:27:44.348Z,952.6240845
2022-08-05T05:28:58.792Z,952.6713867
2022-08-05T05:30:04.197Z,952.6586914
2022-08-05T05:31:00.199Z,952.6869507
2022-08-05T05:32:00.898Z,952.692627
2022-08-05T05:33:09.148Z,952.6785889
2022-08-05T05:34:03.215Z,952.6702881
2022-08-05T05:35:04.022Z,952.7327881
2022-08-05T05:36:04.716Z,952.7426758
2022-08-05T05:37:05.486Z,952.7631226
2022-08-05T05:38:09.161Z,952.7897949
2022-08-05T05:39:09.466Z,952.8013916
2022-08-05T05:40:08.712Z,952.8208008
2022-08-05T05:41:09.378Z,952.8773193
2022-08-05T05:42:10.709Z,952.9068604
2022-08-05T05:43:11.609Z,952.890625
2022-08-05T05:44:35.860Z,952.9146729
2022-08-05T05:45:14.173Z,952.9782715
2022-08-05T05:46:17.258Z,952.9411011
2022-08-05T05:47:21.989Z,952.9806519
2022-08-05T05:48:16.323Z,952.9501343
2022-08-05T05:49:22.965Z,952.9728394
2022-08-05T05:50:19.741Z,953.017334
2022-08-05T05:51:18.471Z,953.0349731
2022-08-05T05:52:28.703Z,953.0167236
2022-08-05T05:53:21.007Z,952.9968872
2022-08-05T05:54:20.765Z,953.005127
2022-08-05T05:55:21.541Z,952.9519653
2022-08-05T05:56:26.226Z,952.9899902
2022-08-05T05:57:23.117Z,953.0066528
2022-08-05T05:58:30.308Z,953.0231934
2022-08-05T05:59:25.398Z,952.9572144
2022-08-05T06:00:27.823Z,952.9623413
2022-08-05T06:01:58.237Z,952.9310913
2022-08-05T06:02:58.930Z,952.9311523
2022-08-05T06:04:02.077Z,952.9653931
2022-08-05T06:05:01.381Z,952.9342041
2022-08-05T06:06:01.262Z,952.9459229
2022-08-05T06:07:02.742Z,952.9259644
2022-08-05T06:08:04.235Z,952.9345093
2022-08-05T06:09:05.038Z,952.9142456
2022-08-05T06:10:09.732Z,952.9353027
2022-08-05T06:11:06.629Z,952.9401855
2022-08-05T06:12:09.638Z,952.8847046
2022-08-05T06:13:08.060Z,952.866272
2022-08-05T06:14:08.885Z,952.9346924
2022-08-05T06:15:12.400Z,952.9067993
2022-08-05T06:16:29.920Z,952.9318848
2022-08-05T06:17:24.254Z,952.9651489
2022-08-05T06:18:13.228Z,952.9529419
2022-08-05T06:19:14.026Z,952.9533691
2022-08-05T06:20:21.398Z,952.9765015
2022-08-05T06:21:16.663Z,952.9543457
2022-08-05T06:22:16.248Z,952.9575195
2022-08-05T06:23:16.917Z,952.9678955
2022-08-05T06:24:18.601Z,952.9333496
2022-08-05T06:25:25.136Z,952.9592285
2022-08-05T06:26:21.420Z,952.9614868
2022-08-05T06:28:12.749Z,952.982666
2022-08-05T06:28:22.407Z,952.9160767
2022-08-05T06:29:25.377Z,952.9512329
2022-08-05T06:30:23.745Z,952.9676514
2022-08-05T06:31:30.530Z,953.0097656
2022-08-05T06:32:29.220Z,952.9608765
2022-08-05T06:33:33.362Z,953.0154419
2022-08-05T06:34:58.800Z,952.9902954
2022-08-05T06:36:05.677Z,952.9689331
2022-08-05T06:37:00.326Z,952.9760742
2022-08-05T06:38:09.999Z,952.9667358
2022-08-05T06:39:02.423Z,952.9375
2022-08-05T06:40:03.727Z,952.9519043
2022-08-05T06:41:04.510Z,952.94104
2022-08-05T06:42:05.212Z,952.930481
2022-08-05T06:43:06.052Z,952.9577637
2022-08-05T06:44:06.549Z,952.9715576
2022-08-05T06:45:08.705Z,953.0062256
2022-08-05T06:46:08.085Z,953.015686
2022-08-05T06:47:10.337Z,953.019043
2022-08-05T06:48:36.146Z,953.0187988
2022-08-05T06:49:12.137Z,953.0187988
2022-08-05T06:50:12.104Z,953.0296631
2022-08-05T06:51:26.587Z,953.1032715
2022-08-05T06:52:36.655Z,953.1224976
2022-08-05T06:53:22.679Z,953.1404419
2022-08-05T06:54:18.123Z,953.1121826
2022-08-05T06:55:15.897Z,953.1634521
2022-08-05T06:56:26.432Z,953.1013794
2022-08-05T06:58:02.610Z,953.1378174
2022-08-05T06:58:20.326Z,953.1436157
2022-08-05T06:59:19.354Z,953.133606
2022-08-05T07:00:24.551Z,953.1768799
2022-08-05T07:01:21.648Z,953.2432861
2022-08-05T07:02:22.907Z,953.2421875
2022-08-05T07:03:28.040Z,953.2420044
2022-08-05T07:04:23.743Z,953.2348633
2022-08-05T07:05:37.494Z,953.2279663
2022-08-05T07:06:25.364Z,953.1849976
2022-08-05T07:07:57.596Z,953.1589966
2022-08-05T07:08:59.231Z,953.194458
2022-08-05T07:09:59.745Z,953.1923218
2022-08-05T07:11:02.020Z,953.2467041
2022-08-05T07:12:01.974Z,953.2904663
2022-08-05T07:13:02.761Z,953.3233032
2022-08-05T07:14:03.476Z,953.2996826
2022-08-05T07:15:04.134Z,953.3284302
2022-08-05T07:16:04.982Z,953.3112793
2022-08-05T07:17:58.677Z,953.3304443
2022-08-05T07:18:09.589Z,953.3275757
2022-08-05T07:19:08.567Z,953.3079834
2022-08-05T07:20:33.780Z,953.3049927
2022-08-05T07:21:10.087Z,953.2918701
2022-08-05T07:22:10.958Z,953.343689
2022-08-05T07:23:13.112Z,953.3143921
2022-08-05T07:24:12.507Z,953.3116455
2022-08-05T07:25:54.122Z,953.3493652
2022-08-05T07:26:15.018Z,953.3300171
2022-08-05T07:27:14.898Z,953.3223267
2022-08-05T07:28:17.264Z,953.3129883
2022-08-05T07:29:17.389Z,953.3415527
2022-08-05T07:30:27.639Z,953.3720093
2022-08-05T07:31:19.904Z,953.4006348
2022-08-05T07:32:24.265Z,953.4040527
2022-08-05T07:33:36.541Z,953.4534302
2022-08-05T07:34:28.372Z,953.4476318
2022-08-05T07:36:01.695Z,953.3942261
2022-08-05T07:36:24.149Z,953.4099731
2022-08-05T07:37:28.885Z,953.3621216
2022-08-05T07:38:33.288Z,953.3616333
2022-08-05T07:40:04.716Z,953.3869019
2022-08-05T07:41:01.461Z,953.3863525
2022-08-05T07:42:08.542Z,953.3982544
2022-08-05T07:42:59.806Z,953.4371948
2022-08-05T07:44:00.588Z,953.4723511
2022-08-05T07:45:02.248Z,953.4888306
2022-08-05T07:46:02.871Z,953.4692383
2022-08-05T07:47:07.823Z,953.4562988
2022-08-05T07:48:05.140Z,953.4128418
2022-08-05T07:49:07.938Z,953.4196167
2022-08-05T07:50:07.434Z,953.4008789
2022-08-05T07:51:23.018Z,953.4017334
2022-08-05T07:52:08.864Z,953.3747559
2022-08-05T07:53:09.685Z,953.4136963
2022-08-05T07:54:11.496Z,953.4622803
2022-08-05T07:55:15.766Z,953.4646606
2022-08-05T07:57:00.202Z,953.4888916
2022-08-05T07:57:22.812Z,953.4986572
2022-08-05T07:58:54.506Z,953.5148315
2022-08-05T07:59:15.657Z,953.498291
2022-08-05T08:00:16.331Z,953.4759521
2022-08-05T08:01:17.592Z,953.4664307
2022-08-05T08:02:18.407Z,953.4440918
2022-08-05T08:03:19.077Z,953.4405518
2022-08-05T08:04:34.330Z,953.4084473
2022-08-05T08:05:20.704Z,953.4412231
2022-08-05T08:06:22.269Z,953.4271851
2022-08-05T08:07:23.381Z,953.4006958
2022-08-05T08:08:23.744Z,953.3644409
2022-08-05T08:09:25.148Z,953.3687744
2022-08-05T08:10:26.347Z,953.3451538
2022-08-05T08:12:01.832Z,953.2856445
2022-08-05T08:12:58.874Z,953.3145142
2022-08-05T08:14:01.195Z,953.3364258
2022-08-05T08:15:02.153Z,953.3473511
2022-08-05T08:16:34.856Z,953.3509521
2022-08-05T08:17:01.719Z,953.3690796
2022-08-05T08:18:04.251Z,953.3859863
2022-08-05T08:19:03.752Z,953.3847046
2022-08-05T08:20:22.670Z,953.3811035
2022-08-05T08:21:05.185Z,953.3659668
2022-08-05T08:22:05.884Z,953.3704834
2022-08-05T08:23:06.703Z,953.3443604
2022-08-05T08:24:13.571Z,953.3206177
2022-08-05T08:25:16.062Z,953.3150635
2022-08-05T08:26:10.247Z,953.336731
2022-08-05T08:27:10.851Z,953.3853149
2022-08-05T08:28:18.969Z,953.409668
2022-08-05T08:29:45.299Z,953.3936768
2022-08-05T08:30:27.603Z,953.3967285
2022-08-05T08:31:17.441Z,953.3596802
2022-08-05T08:32:15.521Z,953.3699951
2022-08-05T08:33:17.101Z,953.3511963
2022-08-05T08:34:18.759Z,953.3275757
2022-08-05T08:35:18.617Z,953.3403931
2022-08-05T08:36:39.187Z,953.3426514
2022-08-05T08:37:19.969Z,953.406311
2022-08-05T08:38:36.166Z,953.4090576
2022-08-05T08:39:22.458Z,953.4021606
2022-08-05T08:40:23.751Z,953.4343872
2022-08-05T08:41:26.180Z,953.3934326
2022-08-05T08:42:32.341Z,953.4048462
2022-08-05T08:45:18.027Z,953.3847046
2022-08-05T08:45:24.775Z,953.4118652
2022-08-05T08:45:58.227Z,953.3961182
2022-08-05T08:46:58.908Z,953.4092407
2022-08-05T08:48:06.964Z,953.451416
2022-08-05T08:50:07.776Z,953.4342041
2022-08-05T08:50:12.950Z,953.4281006
2022-08-05T08:51:54.649Z,953.4403076
2022-08-05T08:52:13.079Z,953.4291992
2022-08-05T08:53:08.113Z,953.4143066
2022-08-05T08:54:06.279Z,953.4012451
2022-08-05T08:55:13.157Z,953.3968506
2022-08-05T08:56:07.849Z,953.413269
2022-08-05T08:57:11.362Z,953.4346313
2022-08-05T08:58:10.101Z,953.4312744
2022-08-05T08:59:14.980Z,953.4235229
2022-08-05T09:00:12.513Z,953.4508057
2022-08-05T09:01:16.867Z,953.4089355
2022-08-05T09:02:14.745Z,953.3794556
2022-08-05T09:03:16.253Z,953.376709
2022-08-05T09:04:16.140Z,953.3978271
2022-08-05T09:05:18.321Z,953.3675537
2022-08-05T09:06:21.229Z,953.380127
2022-08-05T09:07:28.209Z,953.4403076
2022-08-05T09:08:19.597Z,953.4400635
2022-08-05T09:09:20.346Z,953.4412231
2022-08-05T09:10:21.759Z,953.4731445
2022-08-05T09:11:51.759Z,953.4382935
2022-08-05T09:12:27.785Z,953.456543
2022-08-05T09:13:23.926Z,953.3934326
2022-08-05T09:14:57.954Z,953.3812256
2022-08-05T09:15:56.228Z,953.3710327
2022-08-05T09:16:57.010Z,953.385498
2022-08-05T09:17:57.813Z,953.3904419
2022-08-05T09:18:59.495Z,953.3908081
2022-08-05T09:20:02.461Z,953.4050293
2022-08-05T09:21:00.875Z,953.3710938
2022-08-05T09:22:22.143Z,953.4171753
2022-08-05T09:23:05.259Z,953.3781128
2022-08-05T09:24:03.001Z,953.3950806
2022-08-05T09:25:14.027Z,953.3828735
2022-08-05T09:26:06.182Z,953.3773193
2022-08-05T09:27:04.929Z,953.3926392
2022-08-05T09:28:06.447Z,953.3587646
2022-08-05T09:29:06.175Z,953.4046021
2022-08-05T09:30:07.571Z,953.3624878
2022-08-05T09:31:22.173Z,953.3693848
2022-08-05T09:32:40.965Z,953.3793945
2022-08-05T09:33:10.623Z,953.3755493
2022-08-05T09:34:11.499Z,953.3161011
2022-08-05T09:35:12.273Z,953.3547363
2022-08-05T09:36:16.697Z,953.3342285
2022-08-05T09:37:15.098Z,953.3311768
2022-08-05T09:38:18.272Z,953.2940063
2022-08-05T09:39:16.756Z,953.2731323
2022-08-05T09:40:17.273Z,953.3009644
2022-08-05T09:41:17.971Z,953.2767944
2022-08-05T09:42:24.166Z,953.3012695
2022-08-05T09:43:19.973Z,953.2659302
2022-08-05T09:44:20.576Z,953.2912598
2022-08-05T09:46:06.908Z,953.260498
2022-08-05T09:46:22.063Z,953.2579956
2022-08-05T09:47:22.822Z,953.2423706
2022-08-05T09:48:23.533Z,953.1915894
2022-08-05T09:49:24.144Z,953.1690674
2022-08-05T09:50:55.865Z,953.185791
2022-08-05T09:51:56.572Z,953.1674194
2022-08-05T09:52:57.239Z,953.1987305
2022-08-05T09:53:59.110Z,953.1459351
2022-08-05T09:54:59.333Z,953.1473389
2022-08-05T09:56:04.556Z,953.1715088
2022-08-05T09:57:01.722Z,953.1120605
2022-08-05T09:58:01.631Z,953.1195068
2022-08-05T09:59:04.071Z,953.1033325
2022-08-05T10:00:07.562Z,953.1314087
2022-08-05T10:01:13.506Z,953.1473999
2022-08-05T10:02:05.090Z,953.1540527
2022-08-05T10:03:06.785Z,953.194519
2022-08-05T10:04:10.243Z,953.192627
2022-08-05T10:05:08.103Z,953.1498413
2022-08-05T10:06:15.524Z,953.1241455
2022-08-05T10:07:20.082Z,953.1375122
2022-08-05T10:08:37.653Z,953.083252
2022-08-05T10:09:27.489Z,953.0764771
2022-08-05T10:10:14.776Z,953.045105
2022-08-05T10:11:13.308Z,953.0692139
2022-08-05T10:12:31.020Z,953.0505371
2022-08-05T10:13:15.662Z,952.984314
2022-08-05T10:14:16.463Z,952.9700928
2022-08-05T10:15:20.620Z,952.9885864
2022-08-05T10:16:17.997Z,952.9665527
2022-08-05T10:17:37.641Z,952.9942017
2022-08-05T10:18:20.457Z,952.9835815
2022-08-05T10:19:23.836Z,952.9106445
2022-08-05T10:20:22.625Z,952.9503174
2022-08-05T10:21:23.385Z,952.8870239
2022-08-05T10:22:29.751Z,952.8851318
2022-08-05T10:24:00.378Z,952.8781128
2022-08-05T10:24:56.785Z,952.8565674
2022-08-05T10:25:57.522Z,952.8987427
2022-08-05T10:27:00.550Z,952.8435669
2022-08-05T10:28:13.599Z,952.8406372
2022-08-05T10:28:59.828Z,952.8123169
2022-08-05T10:31:20.141Z,952.7935791
2022-08-05T10:32:54.654Z,952.7960815
2022-08-05T10:33:00.859Z,952.8199463
2022-08-05T10:33:04.940Z,952.8190918
2022-08-05T10:34:06.999Z,952.7906494
2022-08-05T10:35:05.603Z,952.7990723
2022-08-05T10:36:06.235Z,952.7878418
2022-08-05T10:37:07.153Z,952.7998657
2022-08-05T10:38:08.400Z,952.800293
2022-08-05T10:39:11.665Z,952.7697754
2022-08-05T10:40:17.565Z,952.7572021
2022-08-05T10:41:12.371Z,952.7800903
2022-08-05T10:42:11.792Z,952.7979736
2022-08-05T10:43:12.638Z,952.836853
2022-08-05T10:44:13.268Z,952.8137207
2022-08-05T10:45:23.299Z,952.8045044
2022-08-05T10:46:14.726Z,952.8171997
2022-08-05T10:47:26.789Z,952.7828979
2022-08-05T10:48:31.761Z,952.7509155
2022-08-05T10:49:17.151Z,952.7772827
2022-08-05T10:50:33.237Z,952.7320557
2022-08-05T10:51:22.375Z,952.7034912
2022-08-05T10:52:20.408Z,952.7281494
2022-08-05T10:53:21.142Z,952.7318115
2022-08-05T10:54:28.331Z,952.6748657
2022-08-05T10:55:22.466Z,952.7220459
2022-08-05T10:56:25.903Z,952.7415771
2022-08-05T10:57:24.346Z,952.753418
2022-08-05T10:58:55.453Z,952.7295532
2022-08-05T11:00:02.696Z,952.5999146
2022-08-05T11:01:03.122Z,952.6193848
2022-08-05T11:02:05.158Z,952.574707
2022-08-05T11:02:59.192Z,952.5632324
2022-08-05T11:04:00.647Z,952.5942993
2022-08-05T11:05:01.239Z,952.5871582
2022-08-05T11:06:03.862Z,952.5681763
2022-08-05T11:07:02.689Z,952.6087646
2022-08-05T11:08:17.091Z,952.6038818
2022-08-05T11:09:05.071Z,952.5969238